sensor_id;sensor_type;location;lat;lon;timestamp;temperature;humidity
25554;DHT22;13446;50.926;5.332;2022-07-06T00:01:51;16.80;99.90
25554;DHT22;13446;50.926;5.332;2022-07-06T00:04:19;16.90;99.90
25554;DHT22;13446;50.926;5.332;2022-07-06T00:06:46;16.80;99.90
25554;DHT22;13446;50.926;5.332;2022-07-06T00:09:12;16.80;99.90
25554;DHT22;13446;50.926;5.332;2022-07-06T00:11:39;16.70;99.90
25554;DHT22;13446;50.926;5.332;2022-07-06T00:14:04;16.80;99.90
25554;DHT22;13446;50.926;5.332;2022-07-06T00:16:30;16.60;99.90
25554;DHT22;13446;50.926;5.332;2022-07-06T00:18:56;16.40;99.90
25554;DHT22;13446;50.926;5.332;2022-07-06T00:21:22;16.30;99.90
25554;DHT22;13446;50.926;5.332;2022-07-06T00:23:48;16.40;99.90
25554;DHT22;13446;50.926;5.332;2022-07-06T00:26:14;16.20;99.90
25554;DHT22;13446;50.926;5.332;2022-07-06T00:28:39;16.20;99.90
25554;DHT22;13446;50.926;5.332;2022-07-06T00:31:05;16.40;99.90
25554;DHT22;13446;50.926;5.332;2022-07-06T00:33:31;16.40;99.90
25554;DHT22;13446;50.926;5.332;2022-07-06T00:35:59;16.40;99.90
25554;DHT22;13446;50.926;5.332;2022-07-06T00:38:27;16.50;99.90
25554;DHT22;13446;50.926;5.332;2022-07-06T00:40:53;16.30;99.90
25554;DHT22;13446;50.926;5.332;2022-07-06T00:43:19;16.20;99.90
25554;DHT22;13446;50.926;5.332;2022-07-06T00:45:45;16.30;99.90
25554;DHT22;13446;50.926;5.332;2022-07-06T00:48:12;16.20;99.90
25554;DHT22;13446;50.926;5.332;2022-07-06T00:50:38;16.20;99.90
25554;DHT22;13446;50.926;5.332;2022-07-06T00:53:06;16.20;99.90
25554;DHT22;13446;50.926;5.332;2022-07-06T00:55:35;16.20;99.90
25554;DHT22;13446;50.926;5.332;2022-07-06T00:58:03;16.00;99.90
25554;DHT22;13446;50.926;5.332;2022-07-06T01:00:30;16.20;99.90
25554;DHT22;13446;50.926;5.332;2022-07-06T01:02:56;16.00;99.90
25554;DHT22;13446;50.926;5.332;2022-07-06T01:05:22;16.10;99.90
25554;DHT22;13446;50.926;5.332;2022-07-06T01:07:49;16.20;99.90
25554;DHT22;13446;50.926;5.332;2022-07-06T01:10:17;16.10;99.90
25554;DHT22;13446;50.926;5.332;2022-07-06T01:12:44;16.10;99.90
25554;DHT22;13446;50.926;5.332;2022-07-06T01:15:19;16.10;99.90
25554;DHT22;13446;50.926;5.332;2022-07-06T01:17:45;15.90;99.90
25554;DHT22;13446;50.926;5.332;2022-07-06T01:20:15;15.80;99.90
25554;DHT22;13446;50.926;5.332;2022-07-06T01:22:43;15.80;99.90
25554;DHT22;13446;50.926;5.332;2022-07-06T01:25:09;15.80;99.90
25554;DHT22;13446;50.926;5.332;2022-07-06T01:27:36;15.80;99.90
25554;DHT22;13446;50.926;5.332;2022-07-06T01:30:08;15.80;99.90
25554;DHT22;13446;50.926;5.332;2022-07-06T01:32:35;15.80;99.90
25554;DHT22;13446;50.926;5.332;2022-07-06T01:35:02;15.80;99.90
25554;DHT22;13446;50.926;5.332;2022-07-06T01:37:28;15.70;99.90
25554;DHT22;13446;50.926;5.332;2022-07-06T01:39:58;15.80;99.90
25554;DHT22;13446;50.926;5.332;2022-07-06T01:42:24;15.70;99.90
25554;DHT22;13446;50.926;5.332;2022-07-06T01:44:49;15.50;99.90
25554;DHT22;13446;50.926;5.332;2022-07-06T01:47:15;15.50;99.90
25554;DHT22;13446;50.926;5.332;2022-07-06T01:49:40;15.40;99.90
25554;DHT22;13446;50.926;5.332;2022-07-06T01:52:06;15.20;99.90
25554;DHT22;13446;50.926;5.332;2022-07-06T01:54:32;15.20;99.90
25554;DHT22;13446;50.926;5.332;2022-07-06T01:56:58;15.40;99.90
25554;DHT22;13446;50.926;5.332;2022-07-06T01:59:24;15.20;99.90
25554;DHT22;13446;50.926;5.332;2022-07-06T02:01:50;15.30;99.90
25554;DHT22;13446;50.926;5.332;2022-07-06T02:04:15;15.30;99.90
25554;DHT22;13446;50.926;5.332;2022-07-06T02:06:41;15.30;99.90
25554;DHT22;13446;50.926;5.332;2022-07-06T02:09:07;15.30;99.90
25554;DHT22;13446;50.926;5.332;2022-07-06T02:11:32;15.20;99.90
25554;DHT22;13446;50.926;5.332;2022-07-06T02:13:58;15.20;99.90
25554;DHT22;13446;50.926;5.332;2022-07-06T02:16:25;15.10;99.90
25554;DHT22;13446;50.926;5.332;2022-07-06T02:18:51;15.20;99.90
25554;DHT22;13446;50.926;5.332;2022-07-06T02:21:17;15.20;99.90
25554;DHT22;13446;50.926;5.332;2022-07-06T02:23:42;15.20;99.90
25554;DHT22;13446;50.926;5.332;2022-07-06T02:26:08;15.30;99.90
25554;DHT22;13446;50.926;5.332;2022-07-06T02:28:34;15.20;99.90
25554;DHT22;13446;50.926;5.332;2022-07-06T02:31:00;15.10;99.90
25554;DHT22;13446;50.926;5.332;2022-07-06T02:33:26;15.10;99.90
25554;DHT22;13446;50.926;5.332;2022-07-06T02:35:51;15.00;99.90
25554;DHT22;13446;50.926;5.332;2022-07-06T02:38:17;15.00;99.90
25554;DHT22;13446;50.926;5.332;2022-07-06T02:40:43;15.00;99.90
25554;DHT22;13446;50.926;5.332;2022-07-06T02:43:08;14.80;99.90
25554;DHT22;13446;50.926;5.332;2022-07-06T02:45:34;14.80;99.90
25554;DHT22;13446;50.926;5.332;2022-07-06T02:48:00;14.80;99.90
25554;DHT22;13446;50.926;5.332;2022-07-06T02:50:25;14.90;99.90
25554;DHT22;13446;50.926;5.332;2022-07-06T02:52:51;14.90;99.90
25554;DHT22;13446;50.926;5.332;2022-07-06T02:55:17;14.80;99.90
25554;DHT22;13446;50.926;5.332;2022-07-06T02:57:43;14.80;99.90
25554;DHT22;13446;50.926;5.332;2022-07-06T03:00:09;14.80;99.90
25554;DHT22;13446;50.926;5.332;2022-07-06T03:02:36;14.70;99.90
25554;DHT22;13446;50.926;5.332;2022-07-06T03:05:02;14.80;99.90
25554;DHT22;13446;50.926;5.332;2022-07-06T03:07:28;14.70;99.90
25554;DHT22;13446;50.926;5.332;2022-07-06T03:09:54;14.60;99.90
25554;DHT22;13446;50.926;5.332;2022-07-06T03:12:20;14.60;99.90
25554;DHT22;13446;50.926;5.332;2022-07-06T03:14:45;14.60;99.90
25554;DHT22;13446;50.926;5.332;2022-07-06T03:17:11;14.60;99.90
25554;DHT22;13446;50.926;5.332;2022-07-06T03:19:37;14.70;99.90
25554;DHT22;13446;50.926;5.332;2022-07-06T03:22:03;14.80;99.90
25554;DHT22;13446;50.926;5.332;2022-07-06T03:24:28;14.80;99.90
25554;DHT22;13446;50.926;5.332;2022-07-06T03:26:54;14.80;99.90
25554;DHT22;13446;50.926;5.332;2022-07-06T03:29:23;14.80;99.90
25554;DHT22;13446;50.926;5.332;2022-07-06T03:31:48;14.80;99.90
25554;DHT22;13446;50.926;5.332;2022-07-06T03:34:14;14.70;99.90
25554;DHT22;13446;50.926;5.332;2022-07-06T03:36:40;14.70;99.90
25554;DHT22;13446;50.926;5.332;2022-07-06T03:39:05;14.70;99.90
25554;DHT22;13446;50.926;5.332;2022-07-06T03:41:31;14.70;99.90
25554;DHT22;13446;50.926;5.332;2022-07-06T03:43:58;14.60;99.90
25554;DHT22;13446;50.926;5.332;2022-07-06T03:46:24;14.60;99.90
25554;DHT22;13446;50.926;5.332;2022-07-06T03:48:49;14.50;99.90
25554;DHT22;13446;50.926;5.332;2022-07-06T03:51:16;14.40;99.90
25554;DHT22;13446;50.926;5.332;2022-07-06T03:53:43;14.50;99.90
25554;DHT22;13446;50.926;5.332;2022-07-06T03:56:09;14.50;99.90
25554;DHT22;13446;50.926;5.332;2022-07-06T03:58:53;14.40;99.90
25554;DHT22;13446;50.926;5.332;2022-07-06T04:01:19;14.50;99.90
25554;DHT22;13446;50.926;5.332;2022-07-06T04:03:45;14.60;99.90
25554;DHT22;13446;50.926;5.332;2022-07-06T04:06:10;14.70;99.90
25554;DHT22;13446;50.926;5.332;2022-07-06T04:08:36;14.80;99.90
25554;DHT22;13446;50.926;5.332;2022-07-06T04:11:02;14.80;99.90
25554;DHT22;13446;50.926;5.332;2022-07-06T04:13:28;14.90;99.90
25554;DHT22;13446;50.926;5.332;2022-07-06T04:15:53;14.90;99.90
25554;DHT22;13446;50.926;5.332;2022-07-06T04:18:19;14.90;99.90
25554;DHT22;13446;50.926;5.332;2022-07-06T04:20:45;14.80;99.90
25554;DHT22;13446;50.926;5.332;2022-07-06T04:23:11;14.90;99.90
25554;DHT22;13446;50.926;5.332;2022-07-06T04:25:36;15.00;99.90
25554;DHT22;13446;50.926;5.332;2022-07-06T04:28:02;14.90;99.90
25554;DHT22;13446;50.926;5.332;2022-07-06T04:30:29;15.00;99.90
25554;DHT22;13446;50.926;5.332;2022-07-06T04:32:55;15.00;99.90
25554;DHT22;13446;50.926;5.332;2022-07-06T04:35:21;15.10;99.90
25554;DHT22;13446;50.926;5.332;2022-07-06T04:37:47;15.10;99.90
25554;DHT22;13446;50.926;5.332;2022-07-06T04:40:15;15.00;99.90
25554;DHT22;13446;50.926;5.332;2022-07-06T04:42:41;14.90;99.90
25554;DHT22;13446;50.926;5.332;2022-07-06T04:45:07;15.10;99.90
25554;DHT22;13446;50.926;5.332;2022-07-06T04:47:33;15.20;99.90
25554;DHT22;13446;50.926;5.332;2022-07-06T04:50:00;15.20;99.90
25554;DHT22;13446;50.926;5.332;2022-07-06T04:52:25;15.30;99.90
25554;DHT22;13446;50.926;5.332;2022-07-06T04:54:51;15.40;99.90
25554;DHT22;13446;50.926;5.332;2022-07-06T04:57:17;15.50;99.90
25554;DHT22;13446;50.926;5.332;2022-07-06T04:59:42;15.70;99.90
25554;DHT22;13446;50.926;5.332;2022-07-06T05:02:08;15.70;99.90
25554;DHT22;13446;50.926;5.332;2022-07-06T05:04:35;15.90;99.90
25554;DHT22;13446;50.926;5.332;2022-07-06T05:07:00;16.00;99.90
25554;DHT22;13446;50.926;5.332;2022-07-06T05:09:26;16.20;99.90
25554;DHT22;13446;50.926;5.332;2022-07-06T05:11:53;16.30;99.90
25554;DHT22;13446;50.926;5.332;2022-07-06T05:14:18;16.40;99.90
25554;DHT22;13446;50.926;5.332;2022-07-06T05:16:46;16.60;99.90
25554;DHT22;13446;50.926;5.332;2022-07-06T05:19:11;16.90;99.90
25554;DHT22;13446;50.926;5.332;2022-07-06T05:21:40;17.10;99.90
25554;DHT22;13446;50.926;5.332;2022-07-06T05:24:05;17.50;99.90
25554;DHT22;13446;50.926;5.332;2022-07-06T05:26:31;18.30;99.90
25554;DHT22;13446;50.926;5.332;2022-07-06T05:28:57;19.30;99.90
25554;DHT22;13446;50.926;5.332;2022-07-06T05:31:22;20.20;99.90
25554;DHT22;13446;50.926;5.332;2022-07-06T05:33:48;21.20;99.90
25554;DHT22;13446;50.926;5.332;2022-07-06T05:36:14;22.40;99.90
25554;DHT22;13446;50.926;5.332;2022-07-06T05:38:39;23.20;97.70
25554;DHT22;13446;50.926;5.332;2022-07-06T05:41:08;23.60;95.00
25554;DHT22;13446;50.926;5.332;2022-07-06T05:43:36;23.50;94.40
25554;DHT22;13446;50.926;5.332;2022-07-06T05:46:03;24.20;93.80
25554;DHT22;13446;50.926;5.332;2022-07-06T05:48:29;24.90;91.70
25554;DHT22;13446;50.926;5.332;2022-07-06T05:51:13;24.80;90.30
25554;DHT22;13446;50.926;5.332;2022-07-06T05:53:38;24.40;88.90
25554;DHT22;13446;50.926;5.332;2022-07-06T05:56:05;24.20;90.20
25554;DHT22;13446;50.926;5.332;2022-07-06T05:58:30;23.90;90.10
25554;DHT22;13446;50.926;5.332;2022-07-06T06:00:56;23.60;90.20
25554;DHT22;13446;50.926;5.332;2022-07-06T06:03:22;23.10;91.60
25554;DHT22;13446;50.926;5.332;2022-07-06T06:05:48;22.90;92.50
25554;DHT22;13446;50.926;5.332;2022-07-06T06:08:13;22.80;92.50
25554;DHT22;13446;50.926;5.332;2022-07-06T06:10:39;22.30;93.40
25554;DHT22;13446;50.926;5.332;2022-07-06T06:13:05;22.20;93.40
25554;DHT22;13446;50.926;5.332;2022-07-06T06:15:31;22.30;93.60
25554;DHT22;13446;50.926;5.332;2022-07-06T06:17:57;22.20;94.20
25554;DHT22;13446;50.926;5.332;2022-07-06T06:20:22;22.10;93.50
25554;DHT22;13446;50.926;5.332;2022-07-06T06:22:56;22.00;93.20
25554;DHT22;13446;50.926;5.332;2022-07-06T06:25:33;22.00;94.80
25554;DHT22;13446;50.926;5.332;2022-07-06T06:27:59;21.80;95.30
25554;DHT22;13446;50.926;5.332;2022-07-06T06:30:25;21.50;96.80
25554;DHT22;13446;50.926;5.332;2022-07-06T06:33:03;21.20;99.10
25554;DHT22;13446;50.926;5.332;2022-07-06T06:35:29;20.50;98.80
25554;DHT22;13446;50.926;5.332;2022-07-06T06:37:54;20.60;99.90
25554;DHT22;13446;50.926;5.332;2022-07-06T06:40:21;20.90;99.90
25554;DHT22;13446;50.926;5.332;2022-07-06T06:42:50;21.10;99.90
25554;DHT22;13446;50.926;5.332;2022-07-06T06:45:15;21.50;99.90
25554;DHT22;13446;50.926;5.332;2022-07-06T06:47:41;21.80;99.90
25554;DHT22;13446;50.926;5.332;2022-07-06T06:50:08;21.50;98.50
25554;DHT22;13446;50.926;5.332;2022-07-06T06:52:34;22.30;98.30
25554;DHT22;13446;50.926;5.332;2022-07-06T06:55:00;22.90;96.70
25554;DHT22;13446;50.926;5.332;2022-07-06T06:57:25;23.40;95.20
25554;DHT22;13446;50.926;5.332;2022-07-06T06:59:51;24.60;93.80
25554;DHT22;13446;50.926;5.332;2022-07-06T07:02:17;25.80;89.00
25554;DHT22;13446;50.926;5.332;2022-07-06T07:04:44;25.80;82.40
25554;DHT22;13446;50.926;5.332;2022-07-06T07:07:11;25.90;79.40
25554;DHT22;13446;50.926;5.332;2022-07-06T07:09:38;26.20;78.40
25554;DHT22;13446;50.926;5.332;2022-07-06T07:12:04;26.40;78.40
25554;DHT22;13446;50.926;5.332;2022-07-06T07:14:30;26.90;74.20
25554;DHT22;13446;50.926;5.332;2022-07-06T07:16:56;27.20;74.20
25554;DHT22;13446;50.926;5.332;2022-07-06T07:19:21;27.20;74.20
25554;DHT22;13446;50.926;5.332;2022-07-06T07:21:47;27.30;72.50
25554;DHT22;13446;50.926;5.332;2022-07-06T07:24:13;27.80;69.50
25554;DHT22;13446;50.926;5.332;2022-07-06T07:26:38;26.80;70.40
25554;DHT22;13446;50.926;5.332;2022-07-06T07:29:07;27.90;71.00
25554;DHT22;13446;50.926;5.332;2022-07-06T07:31:33;28.60;64.60
25554;DHT22;13446;50.926;5.332;2022-07-06T07:33:58;28.50;62.00
25554;DHT22;13446;50.926;5.332;2022-07-06T07:36:25;29.90;57.50
25554;DHT22;13446;50.926;5.332;2022-07-06T07:38:51;30.50;53.50
25554;DHT22;13446;50.926;5.332;2022-07-06T07:41:17;30.90;53.30
25554;DHT22;13446;50.926;5.332;2022-07-06T07:43:44;32.10;51.20
25554;DHT22;13446;50.926;5.332;2022-07-06T07:46:10;33.00;49.10
25554;DHT22;13446;50.926;5.332;2022-07-06T07:48:35;33.80;45.20
25554;DHT22;13446;50.926;5.332;2022-07-06T07:51:01;34.20;44.20
25554;DHT22;13446;50.926;5.332;2022-07-06T07:53:26;33.90;43.40
25554;DHT22;13446;50.926;5.332;2022-07-06T07:55:52;33.70;41.50
25554;DHT22;13446;50.926;5.332;2022-07-06T07:58:18;33.20;42.30
25554;DHT22;13446;50.926;5.332;2022-07-06T08:00:44;33.80;41.30
25554;DHT22;13446;50.926;5.332;2022-07-06T08:03:11;33.60;41.40
25554;DHT22;13446;50.926;5.332;2022-07-06T08:05:37;34.50;40.00
25554;DHT22;13446;50.926;5.332;2022-07-06T08:08:03;35.00;39.00
25554;DHT22;13446;50.926;5.332;2022-07-06T08:10:30;35.50;35.90
25554;DHT22;13446;50.926;5.332;2022-07-06T08:12:55;34.90;35.80
25554;DHT22;13446;50.926;5.332;2022-07-06T08:15:21;33.90;37.50
25554;DHT22;13446;50.926;5.332;2022-07-06T08:17:47;34.60;36.60
25554;DHT22;13446;50.926;5.332;2022-07-06T08:20:14;34.30;36.50
25554;DHT22;13446;50.926;5.332;2022-07-06T08:22:41;34.10;37.60
25554;DHT22;13446;50.926;5.332;2022-07-06T08:25:08;32.80;36.00
25554;DHT22;13446;50.926;5.332;2022-07-06T08:27:34;32.70;38.20
25554;DHT22;13446;50.926;5.332;2022-07-06T08:30:04;32.30;39.00
25554;DHT22;13446;50.926;5.332;2022-07-06T08:32:31;32.50;40.60
25554;DHT22;13446;50.926;5.332;2022-07-06T08:34:56;33.00;39.50
25554;DHT22;13446;50.926;5.332;2022-07-06T08:37:22;33.50;39.80
25554;DHT22;13446;50.926;5.332;2022-07-06T08:39:48;33.60;39.10
25554;DHT22;13446;50.926;5.332;2022-07-06T08:42:17;34.10;39.30
25554;DHT22;13446;50.926;5.332;2022-07-06T08:44:43;34.30;37.30
25554;DHT22;13446;50.926;5.332;2022-07-06T08:47:10;34.10;36.00
25554;DHT22;13446;50.926;5.332;2022-07-06T08:49:39;33.40;36.90
25554;DHT22;13446;50.926;5.332;2022-07-06T08:52:05;33.00;37.90
25554;DHT22;13446;50.926;5.332;2022-07-06T08:54:35;33.40;37.30
25554;DHT22;13446;50.926;5.332;2022-07-06T08:57:04;34.10;36.30
25554;DHT22;13446;50.926;5.332;2022-07-06T08:59:32;34.30;35.90
25554;DHT22;13446;50.926;5.332;2022-07-06T09:02:00;34.50;37.40
25554;DHT22;13446;50.926;5.332;2022-07-06T09:04:26;35.00;35.70
25554;DHT22;13446;50.926;5.332;2022-07-06T09:06:53;34.70;34.20
25554;DHT22;13446;50.926;5.332;2022-07-06T09:09:21;34.50;35.10
25554;DHT22;13446;50.926;5.332;2022-07-06T09:11:48;34.10;34.20
25554;DHT22;13446;50.926;5.332;2022-07-06T09:14:14;33.70;35.30
25554;DHT22;13446;50.926;5.332;2022-07-06T09:16:40;33.90;35.30
25554;DHT22;13446;50.926;5.332;2022-07-06T09:19:11;34.20;35.00
25554;DHT22;13446;50.926;5.332;2022-07-06T09:21:37;34.20;34.90
25554;DHT22;13446;50.926;5.332;2022-07-06T09:24:07;34.60;34.30
25554;DHT22;13446;50.926;5.332;2022-07-06T09:26:33;34.40;34.90
25554;DHT22;13446;50.926;5.332;2022-07-06T09:28:59;35.20;33.40
25554;DHT22;13446;50.926;5.332;2022-07-06T09:31:25;35.40;33.70
25554;DHT22;13446;50.926;5.332;2022-07-06T09:34:03;35.10;33.40
25554;DHT22;13446;50.926;5.332;2022-07-06T09:39:35;36.20;32.60
25554;DHT22;13446;50.926;5.332;2022-07-06T09:42:02;35.60;33.70
25554;DHT22;13446;50.926;5.332;2022-07-06T09:44:34;34.30;34.20
25554;DHT22;13446;50.926;5.332;2022-07-06T09:47:02;33.90;35.60
25554;DHT22;13446;50.926;5.332;2022-07-06T09:49:28;34.30;34.60
25554;DHT22;13446;50.926;5.332;2022-07-06T09:51:59;33.80;34.90
25554;DHT22;13446;50.926;5.332;2022-07-06T09:54:25;33.10;35.90
25554;DHT22;13446;50.926;5.332;2022-07-06T09:56:52;32.60;36.90
25554;DHT22;13446;50.926;5.332;2022-07-06T09:59:21;33.10;37.20
25554;DHT22;13446;50.926;5.332;2022-07-06T10:01:49;33.50;36.20
25554;DHT22;13446;50.926;5.332;2022-07-06T10:04:16;33.70;34.90
25554;DHT22;13446;50.926;5.332;2022-07-06T10:06:44;33.80;35.10
25554;DHT22;13446;50.926;5.332;2022-07-06T10:09:11;33.20;36.40
25554;DHT22;13446;50.926;5.332;2022-07-06T10:11:42;33.00;35.70
25554;DHT22;13446;50.926;5.332;2022-07-06T10:14:12;33.70;35.80
25554;DHT22;13446;50.926;5.332;2022-07-06T10:16:41;34.20;35.20
25554;DHT22;13446;50.926;5.332;2022-07-06T10:19:08;33.20;34.70
25554;DHT22;13446;50.926;5.332;2022-07-06T10:21:39;33.00;35.60
25554;DHT22;13446;50.926;5.332;2022-07-06T10:24:06;33.00;36.30
25554;DHT22;13446;50.926;5.332;2022-07-06T10:26:33;33.00;36.50
25554;DHT22;13446;50.926;5.332;2022-07-06T10:29:01;32.00;37.90
25554;DHT22;13446;50.926;5.332;2022-07-06T10:31:27;31.30;37.70
25554;DHT22;13446;50.926;5.332;2022-07-06T10:33:57;30.30;38.70
25554;DHT22;13446;50.926;5.332;2022-07-06T10:36:24;29.80;40.60
25554;DHT22;13446;50.926;5.332;2022-07-06T10:38:51;29.80;40.90
25554;DHT22;13446;50.926;5.332;2022-07-06T10:41:18;29.50;41.20
25554;DHT22;13446;50.926;5.332;2022-07-06T10:43:55;29.60;41.20
25554;DHT22;13446;50.926;5.332;2022-07-06T10:46:27;29.70;41.00
25554;DHT22;13446;50.926;5.332;2022-07-06T10:48:54;29.80;40.80
25554;DHT22;13446;50.926;5.332;2022-07-06T10:51:28;29.70;40.60
25554;DHT22;13446;50.926;5.332;2022-07-06T10:54:05;30.10;41.00
25554;DHT22;13446;50.926;5.332;2022-07-06T10:56:47;29.60;41.00
25554;DHT22;13446;50.926;5.332;2022-07-06T10:59:19;29.70;41.30
25554;DHT22;13446;50.926;5.332;2022-07-06T11:02:14;30.00;40.00
25554;DHT22;13446;50.926;5.332;2022-07-06T11:04:41;30.60;40.10
25554;DHT22;13446;50.926;5.332;2022-07-06T11:07:19;31.30;38.40
25554;DHT22;13446;50.926;5.332;2022-07-06T11:09:54;32.40;38.10
25554;DHT22;13446;50.926;5.332;2022-07-06T11:12:21;32.80;37.80
25554;DHT22;13446;50.926;5.332;2022-07-06T11:14:48;31.40;37.40
25554;DHT22;13446;50.926;5.332;2022-07-06T11:17:15;30.30;40.80
25554;DHT22;13446;50.926;5.332;2022-07-06T11:19:59;31.10;40.20
25554;DHT22;13446;50.926;5.332;2022-07-06T11:22:36;32.40;39.80
25554;DHT22;13446;50.926;5.332;2022-07-06T11:25:02;32.50;37.00
25554;DHT22;13446;50.926;5.332;2022-07-06T11:27:29;32.40;37.30
25554;DHT22;13446;50.926;5.332;2022-07-06T11:29:54;31.90;37.70
25554;DHT22;13446;50.926;5.332;2022-07-06T11:32:25;31.60;37.90
25554;DHT22;13446;50.926;5.332;2022-07-06T11:34:51;31.30;39.70
25554;DHT22;13446;50.926;5.332;2022-07-06T11:37:17;31.30;40.10
25554;DHT22;13446;50.926;5.332;2022-07-06T11:39:45;32.00;38.60
25554;DHT22;13446;50.926;5.332;2022-07-06T11:42:13;31.80;38.90
25554;DHT22;13446;50.926;5.332;2022-07-06T11:44:40;31.90;39.50
25554;DHT22;13446;50.926;5.332;2022-07-06T11:47:07;30.50;38.80
25554;DHT22;13446;50.926;5.332;2022-07-06T11:49:35;30.50;41.20
25554;DHT22;13446;50.926;5.332;2022-07-06T11:52:11;30.70;41.70
25554;DHT22;13446;50.926;5.332;2022-07-06T11:54:38;29.00;41.70
25554;DHT22;13446;50.926;5.332;2022-07-06T11:57:08;29.90;42.50
25554;DHT22;13446;50.926;5.332;2022-07-06T11:59:36;31.00;40.60
25554;DHT22;13446;50.926;5.332;2022-07-06T12:02:04;31.20;40.40
25554;DHT22;13446;50.926;5.332;2022-07-06T12:04:36;32.70;39.80
25554;DHT22;13446;50.926;5.332;2022-07-06T12:07:07;32.40;38.20
25554;DHT22;13446;50.926;5.332;2022-07-06T12:09:35;33.30;37.30
25554;DHT22;13446;50.926;5.332;2022-07-06T12:12:02;33.50;37.20
25554;DHT22;13446;50.926;5.332;2022-07-06T12:14:30;32.60;37.20
25554;DHT22;13446;50.926;5.332;2022-07-06T12:16:56;31.90;38.20
25554;DHT22;13446;50.926;5.332;2022-07-06T12:19:22;30.60;40.30
25554;DHT22;13446;50.926;5.332;2022-07-06T12:21:50;30.70;40.10
25554;DHT22;13446;50.926;5.332;2022-07-06T12:24:24;30.90;40.90
25554;DHT22;13446;50.926;5.332;2022-07-06T12:26:51;30.70;40.10
25554;DHT22;13446;50.926;5.332;2022-07-06T12:29:17;30.60;41.50
25554;DHT22;13446;50.926;5.332;2022-07-06T12:31:44;30.20;41.30
25554;DHT22;13446;50.926;5.332;2022-07-06T12:34:23;31.10;41.40
25554;DHT22;13446;50.926;5.332;2022-07-06T12:36:56;31.70;40.60
25554;DHT22;13446;50.926;5.332;2022-07-06T12:39:24;32.50;40.10
25554;DHT22;13446;50.926;5.332;2022-07-06T12:41:52;32.40;38.10
25554;DHT22;13446;50.926;5.332;2022-07-06T12:44:23;32.00;40.00
25554;DHT22;13446;50.926;5.332;2022-07-06T12:46:59;32.00;39.10
25554;DHT22;13446;50.926;5.332;2022-07-06T12:49:27;32.20;39.10
25554;DHT22;13446;50.926;5.332;2022-07-06T12:54:19;32.00;39.90
25554;DHT22;13446;50.926;5.332;2022-07-06T12:59:27;32.20;37.80
25554;DHT22;13446;50.926;5.332;2022-07-06T13:01:53;32.90;38.20
25554;DHT22;13446;50.926;5.332;2022-07-06T13:04:30;33.50;38.40
25554;DHT22;13446;50.926;5.332;2022-07-06T13:06:57;33.40;37.70
25554;DHT22;13446;50.926;5.332;2022-07-06T13:09:23;32.90;38.60
25554;DHT22;13446;50.926;5.332;2022-07-06T13:11:49;31.70;38.30
25554;DHT22;13446;50.926;5.332;2022-07-06T13:14:18;31.40;39.80
25554;DHT22;13446;50.926;5.332;2022-07-06T13:16:46;30.80;41.50
25554;DHT22;13446;50.926;5.332;2022-07-06T13:19:13;30.90;40.70
25554;DHT22;13446;50.926;5.332;2022-07-06T13:21:38;30.60;40.60
25554;DHT22;13446;50.926;5.332;2022-07-06T13:24:05;30.20;40.50
25554;DHT22;13446;50.926;5.332;2022-07-06T13:26:31;30.20;40.90
25554;DHT22;13446;50.926;5.332;2022-07-06T13:29:03;29.70;42.40
25554;DHT22;13446;50.926;5.332;2022-07-06T13:31:29;29.50;42.60
25554;DHT22;13446;50.926;5.332;2022-07-06T13:33:55;29.40;42.70
25554;DHT22;13446;50.926;5.332;2022-07-06T13:36:21;29.30;43.60
25554;DHT22;13446;50.926;5.332;2022-07-06T13:38:49;29.10;43.20
25554;DHT22;13446;50.926;5.332;2022-07-06T13:41:15;29.20;43.90
25554;DHT22;13446;50.926;5.332;2022-07-06T13:43:41;29.40;43.60
25554;DHT22;13446;50.926;5.332;2022-07-06T13:46:07;29.70;43.60
25554;DHT22;13446;50.926;5.332;2022-07-06T13:48:33;29.60;43.50
25554;DHT22;13446;50.926;5.332;2022-07-06T13:51:00;29.70;42.70
25554;DHT22;13446;50.926;5.332;2022-07-06T13:53:28;29.80;42.70
25554;DHT22;13446;50.926;5.332;2022-07-06T13:55:54;29.50;43.20
25554;DHT22;13446;50.926;5.332;2022-07-06T13:58:20;29.20;42.70
25554;DHT22;13446;50.926;5.332;2022-07-06T14:00:46;28.60;44.60
25554;DHT22;13446;50.926;5.332;2022-07-06T14:03:12;28.80;44.80
25554;DHT22;13446;50.926;5.332;2022-07-06T14:05:40;29.00;44.40
25554;DHT22;13446;50.926;5.332;2022-07-06T14:08:09;29.10;43.70
25554;DHT22;13446;50.926;5.332;2022-07-06T14:10:35;29.10;44.00
25554;DHT22;13446;50.926;5.332;2022-07-06T14:13:00;29.20;43.90
25554;DHT22;13446;50.926;5.332;2022-07-06T14:15:26;29.00;43.80
25554;DHT22;13446;50.926;5.332;2022-07-06T14:17:54;28.80;44.70
25554;DHT22;13446;50.926;5.332;2022-07-06T14:20:20;28.70;44.40
25554;DHT22;13446;50.926;5.332;2022-07-06T14:22:46;27.80;45.80
25554;DHT22;13446;50.926;5.332;2022-07-06T14:25:11;27.80;45.00
25554;DHT22;13446;50.926;5.332;2022-07-06T14:27:38;27.80;45.30
25554;DHT22;13446;50.926;5.332;2022-07-06T14:30:07;27.50;46.00
25554;DHT22;13446;50.926;5.332;2022-07-06T14:32:33;27.50;45.40
25554;DHT22;13446;50.926;5.332;2022-07-06T14:35:00;27.60;45.20
25554;DHT22;13446;50.926;5.332;2022-07-06T14:37:26;27.70;46.30
25554;DHT22;13446;50.926;5.332;2022-07-06T14:39:51;27.50;46.80
25554;DHT22;13446;50.926;5.332;2022-07-06T14:42:17;27.50;46.30
25554;DHT22;13446;50.926;5.332;2022-07-06T14:44:43;27.20;47.10
25554;DHT22;13446;50.926;5.332;2022-07-06T14:47:08;26.90;47.20
25554;DHT22;13446;50.926;5.332;2022-07-06T14:49:34;26.90;47.40
25554;DHT22;13446;50.926;5.332;2022-07-06T14:51:59;26.60;47.60
25554;DHT22;13446;50.926;5.332;2022-07-06T14:54:25;26.40;48.30
25554;DHT22;13446;50.926;5.332;2022-07-06T14:56:51;26.50;48.70
25554;DHT22;13446;50.926;5.332;2022-07-06T14:59:17;26.40;48.60
25554;DHT22;13446;50.926;5.332;2022-07-06T15:01:43;26.30;48.90
25554;DHT22;13446;50.926;5.332;2022-07-06T15:04:10;26.20;49.40
25554;DHT22;13446;50.926;5.332;2022-07-06T15:06:36;26.30;49.10
25554;DHT22;13446;50.926;5.332;2022-07-06T15:09:02;26.40;49.00
25554;DHT22;13446;50.926;5.332;2022-07-06T15:11:33;26.40;49.00
25554;DHT22;13446;50.926;5.332;2022-07-06T15:13:59;26.20;49.10
25554;DHT22;13446;50.926;5.332;2022-07-06T15:16:24;26.50;48.50
25554;DHT22;13446;50.926;5.332;2022-07-06T15:18:51;26.40;48.40
25554;DHT22;13446;50.926;5.332;2022-07-06T15:21:17;26.40;49.40
25554;DHT22;13446;50.926;5.332;2022-07-06T15:23:42;26.50;50.00
25554;DHT22;13446;50.926;5.332;2022-07-06T15:26:08;26.90;49.40
25554;DHT22;13446;50.926;5.332;2022-07-06T15:28:34;27.00;48.80
25554;DHT22;13446;50.926;5.332;2022-07-06T15:31:00;27.30;49.00
25554;DHT22;13446;50.926;5.332;2022-07-06T15:33:26;27.20;48.40
25554;DHT22;13446;50.926;5.332;2022-07-06T15:35:51;26.90;49.30
25554;DHT22;13446;50.926;5.332;2022-07-06T15:38:18;27.00;49.40